createdAt,value
2018-09-13T00:01:00.352Z,17.12
2018-09-13T00:03:28.981Z,17.08
2018-09-13T00:05:57.801Z,17.09
2018-09-13T00:08:26.588Z,17.06
2018-09-13T00:10:55.330Z,17.06
2018-09-13T00:13:24.560Z,17.03
2018-09-13T00:15:53.328Z,17.12
2018-09-13T00:18:21.986Z,17.15
2018-09-13T00:20:50.703Z,17.16
2018-09-13T00:23:19.477Z,17.22
2018-09-13T00:25:48.194Z,17.22
2018-09-13T00:28:16.883Z,17.18
2018-09-13T00:30:45.700Z,17.08
2018-09-13T00:33:14.409Z,17.13
2018-09-13T00:35:43.212Z,17.18
2018-09-13T00:38:12.179Z,17.19
2018-09-13T00:40:40.852Z,17.19
2018-09-13T00:43:09.547Z,17.12
2018-09-13T00:45:38.270Z,17.14
2018-09-13T00:48:06.946Z,17.01
2018-09-13T00:50:35.658Z,17.01
2018-09-13T00:53:04.511Z,16.92
2018-09-13T00:55:33.231Z,16.92
2018-09-13T00:58:01.937Z,16.96
2018-09-13T01:00:30.739Z,16.97
2018-09-13T01:02:59.471Z,16.90
2018-09-13T01:05:28.230Z,16.86
2018-09-13T01:07:57.103Z,16.78
2018-09-13T01:10:26.371Z,16.81
2018-09-13T01:12:55.164Z,16.78
2018-09-13T01:15:24.499Z,16.74
2018-09-13T01:17:53.245Z,16.61
2018-09-13T01:20:22.008Z,16.61
2018-09-13T01:22:50.752Z,16.51
2018-09-13T01:25:19.531Z,16.41
2018-09-13T01:27:48.266Z,16.51
2018-09-13T01:30:16.996Z,16.50
2018-09-13T01:32:45.687Z,16.50
2018-09-13T01:35:14.444Z,16.45
2018-09-13T01:37:43.210Z,16.46
2018-09-13T01:40:12.025Z,16.54
2018-09-13T01:42:40.740Z,16.50
2018-09-13T01:45:09.530Z,16.45
2018-09-13T01:47:38.291Z,16.46
2018-09-13T01:50:07.040Z,16.49
2018-09-13T01:52:35.775Z,16.45
2018-09-13T01:55:04.553Z,16.48
2018-09-13T01:57:33.303Z,16.46
2018-09-13T02:00:02.135Z,16.40
2018-09-13T02:02:30.839Z,16.44
2018-09-13T02:04:59.623Z,16.52
2018-09-13T02:07:28.294Z,16.45
2018-09-13T02:09:57.066Z,16.41
2018-09-13T02:12:25.795Z,16.45
2018-09-13T02:14:54.520Z,16.45
2018-09-13T02:17:23.248Z,16.39
2018-09-13T02:19:51.974Z,16.29
2018-09-13T02:22:20.759Z,16.21
2018-09-13T02:24:49.513Z,16.06
2018-09-13T02:27:18.190Z,15.95
2018-09-13T02:29:46.867Z,15.99
2018-09-13T02:32:15.522Z,15.96
2018-09-13T02:34:44.185Z,15.87
2018-09-13T02:37:13.002Z,15.80
2018-09-13T02:39:41.701Z,15.77
2018-09-13T02:42:10.457Z,15.79
2018-09-13T02:44:39.208Z,15.74
2018-09-13T02:47:08.007Z,15.67
2018-09-13T02:49:36.791Z,15.66
2018-09-13T02:52:05.618Z,15.64
2018-09-13T02:54:34.286Z,15.60
2018-09-13T02:57:03.027Z,15.57
2018-09-13T02:59:31.716Z,15.56
2018-09-13T03:02:00.849Z,15.60
2018-09-13T03:04:29.634Z,15.51
2018-09-13T03:06:58.326Z,15.63
2018-09-13T03:09:27.007Z,15.71
2018-09-13T03:11:55.809Z,15.69
2018-09-13T03:14:24.486Z,15.80
2018-09-13T03:16:53.282Z,15.82
2018-09-13T03:19:22.060Z,15.78
2018-09-13T03:21:50.830Z,15.71
2018-09-13T03:24:19.539Z,15.69
2018-09-13T03:26:48.233Z,15.68
2018-09-13T03:29:17.078Z,15.68
2018-09-13T03:31:45.760Z,15.66
2018-09-13T03:34:14.546Z,15.64
2018-09-13T03:36:43.237Z,15.47
2018-09-13T03:39:12.971Z,15.38
2018-09-13T03:41:41.705Z,15.24
2018-09-13T03:44:10.402Z,15.14
2018-09-13T03:46:39.075Z,15.11
2018-09-13T03:49:07.792Z,14.98
2018-09-13T03:51:36.553Z,14.93
2018-09-13T03:54:05.222Z,14.82
2018-09-13T03:56:34.021Z,14.87
2018-09-13T03:59:02.833Z,14.78
2018-09-13T04:01:31.615Z,14.62
2018-09-13T04:04:00.511Z,14.56
2018-09-13T04:06:29.268Z,14.55
2018-09-13T04:08:58.130Z,14.57
2018-09-13T04:11:26.850Z,14.53
2018-09-13T04:13:56.727Z,14.53
2018-09-13T04:16:28.943Z,14.55
2018-09-13T04:18:57.717Z,14.56
2018-09-13T04:21:26.408Z,14.60
2018-09-13T04:23:55.137Z,14.62
2018-09-13T04:26:23.900Z,14.60
2018-09-13T04:28:53.152Z,14.61
2018-09-13T04:31:21.928Z,14.61
2018-09-13T04:33:50.701Z,14.75
2018-09-13T04:36:19.464Z,14.85
2018-09-13T04:38:48.196Z,14.91
2018-09-13T04:41:16.873Z,14.90
2018-09-13T04:43:45.635Z,14.91
2018-09-13T04:46:14.348Z,14.87
2018-09-13T04:48:43.093Z,14.94
2018-09-13T04:51:11.788Z,14.97
2018-09-13T04:53:40.596Z,15.05
2018-09-13T04:56:09.443Z,15.13
2018-09-13T04:58:38.299Z,15.23
2018-09-13T05:01:07.025Z,15.32
2018-09-13T05:03:36.018Z,15.40
2018-09-13T05:06:04.770Z,15.49
2018-09-13T05:08:33.611Z,15.58
2018-09-13T05:11:02.277Z,15.61
2018-09-13T05:13:31.043Z,15.67
2018-09-13T05:15:59.863Z,15.81
2018-09-13T05:18:28.745Z,15.79
2018-09-13T05:20:57.490Z,15.76
2018-09-13T05:23:26.240Z,15.95
2018-09-13T05:25:54.957Z,16.24
2018-09-13T05:28:23.695Z,16.39
2018-09-13T05:30:52.388Z,16.47
2018-09-13T05:33:21.202Z,16.61
2018-09-13T05:35:49.919Z,16.59
2018-09-13T05:38:18.844Z,16.67
2018-09-13T05:40:47.667Z,16.73
2018-09-13T05:43:16.614Z,16.86
2018-09-13T05:45:45.520Z,16.97
2018-09-13T05:48:14.309Z,17.01
2018-09-13T05:50:43.067Z,17.08
2018-09-13T05:53:11.780Z,17.18
2018-09-13T05:55:40.644Z,17.25
2018-09-13T05:58:09.526Z,17.35
2018-09-13T06:00:38.379Z,17.44
2018-09-13T06:03:07.231Z,17.47
2018-09-13T06:05:35.920Z,17.61
2018-09-13T06:08:04.766Z,17.69
2018-09-13T06:10:34.376Z,17.74
2018-09-13T06:13:03.151Z,17.76
2018-09-13T06:15:31.941Z,17.84
2018-09-13T06:18:00.622Z,17.96
2018-09-13T06:20:29.337Z,18.05
2018-09-13T06:22:58.228Z,18.11
2018-09-13T06:25:27.008Z,18.21
2018-09-13T06:27:55.840Z,18.27
2018-09-13T06:30:24.563Z,18.35
2018-09-13T06:33:11.215Z,18.41
2018-09-13T06:35:40.060Z,18.51
2018-09-13T06:38:08.907Z,18.47
2018-09-13T06:40:37.754Z,18.45
2018-09-13T06:43:06.617Z,18.48
2018-09-13T06:45:35.453Z,18.51
2018-09-13T06:48:04.710Z,18.56
2018-09-13T06:50:33.867Z,18.56
2018-09-13T06:53:02.608Z,18.57
2018-09-13T06:55:31.286Z,18.56
2018-09-13T06:57:59.981Z,18.77
2018-09-13T07:00:28.959Z,18.88
2018-09-13T07:02:57.691Z,19.02
2018-09-13T07:05:26.556Z,19.15
2018-09-13T07:07:55.383Z,19.20
2018-09-13T07:10:24.096Z,19.27
2018-09-13T07:12:52.954Z,19.35
2018-09-13T07:15:21.699Z,19.50
2018-09-13T07:17:50.512Z,19.60
2018-09-13T07:20:19.388Z,19.75
2018-09-13T07:22:48.252Z,19.87
2018-09-13T07:25:17.031Z,19.88
2018-09-13T07:27:46.105Z,19.87
2018-09-13T07:30:16.292Z,19.84
2018-09-13T07:32:45.073Z,19.90
2018-09-13T07:35:13.886Z,19.96
2018-09-13T07:37:42.699Z,20.10
2018-09-13T07:40:11.434Z,20.18
2018-09-13T07:42:40.392Z,20.30
2018-09-13T07:45:09.035Z,20.31
2018-09-13T07:47:37.885Z,20.38
2018-09-13T07:50:06.968Z,20.56
2018-09-13T07:52:35.627Z,20.69
2018-09-13T07:55:04.499Z,20.79
2018-09-13T07:57:33.397Z,20.91
2018-09-13T08:00:02.160Z,20.85
2018-09-13T08:02:30.859Z,20.98
2018-09-13T08:04:59.619Z,21.03
2018-09-13T08:07:28.373Z,20.95
2018-09-13T08:09:57.083Z,21.04
2018-09-13T08:12:25.839Z,21.28
2018-09-13T08:14:54.563Z,21.44
2018-09-13T08:17:23.590Z,21.63
2018-09-13T08:19:52.701Z,21.76
2018-09-13T08:22:21.495Z,21.77
2018-09-13T08:24:50.275Z,22.01
2018-09-13T08:27:19.103Z,22.24
2018-09-13T08:29:49.991Z,22.37
2018-09-13T08:32:18.738Z,22.32
2018-09-13T08:34:47.502Z,22.28
2018-09-13T08:37:16.254Z,22.20
2018-09-13T08:39:45.103Z,22.21
2018-09-13T08:42:13.934Z,22.09
2018-09-13T08:44:42.628Z,21.88
2018-09-13T08:47:11.347Z,21.90
2018-09-13T08:49:40.072Z,21.98
2018-09-13T08:52:08.840Z,22.00
2018-09-13T08:54:37.653Z,22.18
2018-09-13T08:57:06.446Z,22.25
2018-09-13T08:59:35.302Z,22.31
2018-09-13T09:02:04.059Z,22.32
2018-09-13T09:04:32.934Z,22.35
2018-09-13T09:07:01.702Z,22.38
2018-09-13T09:09:30.351Z,22.33
2018-09-13T09:11:59.191Z,22.41
2018-09-13T09:14:27.842Z,22.39
2018-09-13T09:16:56.534Z,22.40
2018-09-13T09:19:25.578Z,22.37
2018-09-13T09:21:54.466Z,22.64
2018-09-13T09:24:23.138Z,22.80
2018-09-13T09:26:51.851Z,23.16
2018-09-13T09:29:20.623Z,23.31
2018-09-13T09:31:49.436Z,23.45
2018-09-13T09:34:18.192Z,23.42
2018-09-13T09:36:47.236Z,23.41
2018-09-13T09:39:16.031Z,23.46
2018-09-13T09:41:44.738Z,23.36
2018-09-13T09:44:13.443Z,23.14
2018-09-13T09:46:42.289Z,23.15
2018-09-13T09:49:10.966Z,22.82
2018-09-13T09:51:39.718Z,22.92
2018-09-13T09:54:08.507Z,22.97
2018-09-13T09:56:39.372Z,23.10
2018-09-13T09:59:08.066Z,23.43
2018-09-13T10:01:40.884Z,23.48
2018-09-13T10:04:09.616Z,23.56
2018-09-13T10:06:38.563Z,23.74
2018-09-13T10:09:09.030Z,23.94
2018-09-13T10:11:37.817Z,24.39
2018-09-13T10:14:06.494Z,24.43
2018-09-13T10:16:40.407Z,24.45
2018-09-13T10:19:14.231Z,24.95
2018-09-13T10:22:47.852Z,25.13
2018-09-13T10:25:21.687Z,25.03
2018-09-13T10:28:55.946Z,25.13
2018-09-13T10:31:29.984Z,24.44
2018-09-13T10:34:03.875Z,24.44
2018-09-13T10:36:37.820Z,24.25
2018-09-13T10:39:14.339Z,24.20
2018-09-13T10:41:48.599Z,24.11
2018-09-13T10:44:22.534Z,24.12
2018-09-13T10:46:56.444Z,24.31
2018-09-13T10:50:31.136Z,24.96
2018-09-13T10:53:08.290Z,25.55
2018-09-13T10:55:37.010Z,25.72
2018-09-13T10:58:05.959Z,25.30
2018-09-13T11:00:34.661Z,26.68
2018-09-13T11:03:03.415Z,27.18
2018-09-13T11:05:32.182Z,27.76
2018-09-13T11:08:00.938Z,27.76
2018-09-13T11:10:29.882Z,27.63
2018-09-13T11:13:03.255Z,27.88
2018-09-13T11:15:34.947Z,27.91
2018-09-13T11:18:05.000Z,27.82
2018-09-13T11:20:34.158Z,27.94
2018-09-13T11:23:03.203Z,27.61
2018-09-13T11:25:32.095Z,27.43
2018-09-13T11:28:00.782Z,27.11
2018-09-13T11:30:29.732Z,26.89
2018-09-13T11:32:58.416Z,26.79
2018-09-13T11:35:27.143Z,27.03
2018-09-13T11:37:56.069Z,27.09
2018-09-13T11:40:24.919Z,27.81
2018-09-13T11:42:53.509Z,27.76
2018-09-13T11:45:22.479Z,27.54
2018-09-13T11:47:51.193Z,27.28
2018-09-13T11:50:19.996Z,26.60
2018-09-13T11:52:49.098Z,26.34
2018-09-13T11:55:17.935Z,25.81
2018-09-13T11:57:46.911Z,25.58
2018-09-13T12:00:17.491Z,25.54
2018-09-13T12:02:46.366Z,25.91
2018-09-13T12:05:15.223Z,26.73
2018-09-13T12:07:43.979Z,27.53
2018-09-13T12:10:13.025Z,28.29
2018-09-13T12:12:41.704Z,28.80
2018-09-13T12:15:10.965Z,28.89
2018-09-13T12:17:39.783Z,28.64
2018-09-13T12:20:08.615Z,28.83
2018-09-13T12:22:37.652Z,29.13
2018-09-13T12:25:06.400Z,29.01
2018-09-13T12:27:35.566Z,28.56
2018-09-13T12:30:05.637Z,27.71
2018-09-13T12:32:34.472Z,27.06
2018-09-13T12:35:03.213Z,26.56
2018-09-13T12:37:31.987Z,26.08
2018-09-13T12:40:00.763Z,25.91
2018-09-13T12:42:29.474Z,25.60
2018-09-13T12:44:58.229Z,25.57
2018-09-13T12:47:27.242Z,25.53
2018-09-13T12:49:56.268Z,25.50
2018-09-13T12:52:25.071Z,25.55
2018-09-13T12:54:54.210Z,25.94
2018-09-13T12:57:23.686Z,26.23
2018-09-13T12:59:52.490Z,26.15
2018-09-13T13:02:21.314Z,26.16
2018-09-13T13:04:50.220Z,26.24
2018-09-13T13:07:19.188Z,26.34
2018-09-13T13:09:48.218Z,26.74
2018-09-13T13:12:17.325Z,27.19
2018-09-13T13:14:46.257Z,27.45
2018-09-13T13:17:15.138Z,28.10
2018-09-13T13:19:44.088Z,29.06
2018-09-13T13:22:12.948Z,29.37
2018-09-13T13:24:41.738Z,29.18
2018-09-13T13:27:10.705Z,29.74
2018-09-13T13:29:39.513Z,30.10
2018-09-13T13:32:08.367Z,30.46
2018-09-13T13:34:37.356Z,30.96
2018-09-13T13:37:06.121Z,31.37
2018-09-13T13:39:34.979Z,31.25
2018-09-13T13:42:03.802Z,31.25
2018-09-13T13:44:32.757Z,31.47
2018-09-13T13:47:01.715Z,31.82
2018-09-13T13:49:30.625Z,31.94
2018-09-13T13:51:59.512Z,31.57
2018-09-13T13:54:28.318Z,31.59
2018-09-13T13:56:57.127Z,31.36
2018-09-13T13:59:25.985Z,30.85
2018-09-13T14:01:55.022Z,29.98
2018-09-13T14:04:23.916Z,29.14
2018-09-13T14:06:52.896Z,28.45
2018-09-13T14:09:21.710Z,27.78
2018-09-13T14:11:50.575Z,27.06
2018-09-13T14:14:19.327Z,26.81
2018-09-13T14:16:48.188Z,26.58
2018-09-13T14:19:17.091Z,26.33
2018-09-13T14:21:45.939Z,25.83
2018-09-13T14:24:14.783Z,25.67
2018-09-13T14:26:43.671Z,25.56
2018-09-13T14:29:12.584Z,25.28
2018-09-13T14:31:41.399Z,25.13
2018-09-13T14:37:09.850Z,24.92
2018-09-13T14:39:38.759Z,24.92
2018-09-13T14:42:07.615Z,24.92
2018-09-13T14:44:36.628Z,24.72
2018-09-13T14:47:05.382Z,24.73
2018-09-13T14:49:34.280Z,24.84
2018-09-13T14:52:03.124Z,24.80
2018-09-13T14:54:32.095Z,25.33
2018-09-13T14:57:01.111Z,25.92
2018-09-13T14:59:30.119Z,26.46
2018-09-13T15:01:58.968Z,27.04
2018-09-13T15:04:27.755Z,27.60
2018-09-13T15:06:56.768Z,27.66
2018-09-13T15:09:25.690Z,27.57
2018-09-13T15:11:54.620Z,27.93
2018-09-13T15:14:23.477Z,28.00
2018-09-13T15:16:52.270Z,27.95
2018-09-13T15:19:21.100Z,27.53
2018-09-13T15:21:49.958Z,27.19
2018-09-13T15:24:18.854Z,27.15
2018-09-13T15:26:47.741Z,26.62
2018-09-13T15:29:16.606Z,26.13
2018-09-13T15:31:45.441Z,25.98
2018-09-13T15:34:14.271Z,25.78
2018-09-13T15:36:43.152Z,25.65
2018-09-13T15:39:13.105Z,25.70
2018-09-13T15:41:42.179Z,25.58
2018-09-13T15:44:11.937Z,25.51
2018-09-13T15:46:40.963Z,25.37
2018-09-13T15:49:09.830Z,25.45
2018-09-13T15:51:38.786Z,25.49
2018-09-13T15:54:19.838Z,25.64
2018-09-13T15:57:08.633Z,25.64
2018-09-13T15:59:37.378Z,25.39
2018-09-13T16:02:06.343Z,25.08
2018-09-13T16:04:35.196Z,24.87
2018-09-13T16:07:04.027Z,24.79
2018-09-13T16:09:33.004Z,24.90
2018-09-13T16:12:01.846Z,24.62
2018-09-13T16:14:30.814Z,24.27
2018-09-13T16:17:01.725Z,24.09
2018-09-13T16:19:31.376Z,23.72
2018-09-13T16:22:00.551Z,23.61
2018-09-13T16:24:29.304Z,23.47
2018-09-13T16:26:58.127Z,23.27
2018-09-13T16:29:27.019Z,23.20
2018-09-13T16:34:36.418Z,22.94
2018-09-13T16:37:10.806Z,22.76
2018-09-13T16:39:49.167Z,22.63
2018-09-13T16:42:23.119Z,22.49
2018-09-13T16:44:55.678Z,22.47
2018-09-13T16:47:30.738Z,22.35
2018-09-13T16:50:00.743Z,22.27
2018-09-13T16:52:32.283Z,22.14
2018-09-13T16:55:01.135Z,22.09
2018-09-13T16:57:29.968Z,21.99
2018-09-13T16:59:58.803Z,21.99
2018-09-13T17:02:27.653Z,21.99
2018-09-13T17:04:56.608Z,21.88
2018-09-13T17:07:25.469Z,21.79
2018-09-13T17:09:54.310Z,21.78
2018-09-13T17:12:23.254Z,21.65
2018-09-13T17:14:52.089Z,21.63
2018-09-13T17:17:21.015Z,21.63
2018-09-13T17:19:49.820Z,21.58
2018-09-13T17:22:18.860Z,21.51
2018-09-13T17:24:47.849Z,21.49
2018-09-13T17:27:16.659Z,21.44
2018-09-13T17:29:45.515Z,21.41
2018-09-13T17:32:14.383Z,21.31
2018-09-13T17:34:43.191Z,21.32
2018-09-13T17:37:12.014Z,21.22
2018-09-13T17:39:40.846Z,21.05
2018-09-13T17:42:09.681Z,21.05
2018-09-13T17:44:38.669Z,20.98
2018-09-13T17:47:07.548Z,20.94
2018-09-13T17:49:36.446Z,20.87
2018-09-13T17:52:05.309Z,20.85
2018-09-13T17:54:34.177Z,20.81
2018-09-13T17:57:03.809Z,20.83
2018-09-13T17:59:32.553Z,20.74
2018-09-13T18:02:01.308Z,20.73
2018-09-13T18:04:30.058Z,20.74
2018-09-13T18:06:58.771Z,20.67
2018-09-13T18:09:27.629Z,20.58
2018-09-13T18:11:56.402Z,20.59
2018-09-13T18:14:25.221Z,20.54
2018-09-13T18:16:54.030Z,20.62
2018-09-13T18:19:22.845Z,20.64
2018-09-13T18:21:52.379Z,20.48
2018-09-13T18:24:21.169Z,20.36
2018-09-13T18:26:49.910Z,20.45
2018-09-13T18:29:18.754Z,20.40
2018-09-13T18:31:47.567Z,20.38
2018-09-13T18:34:16.379Z,20.31
2018-09-13T18:36:45.079Z,20.23
2018-09-13T18:39:13.987Z,20.15
2018-09-13T18:41:42.770Z,20.07
2018-09-13T18:44:11.567Z,19.93
2018-09-13T18:46:40.317Z,19.76
2018-09-13T18:49:09.202Z,19.78
2018-09-13T18:51:37.984Z,19.80
2018-09-13T18:54:06.881Z,19.74
2018-09-13T18:56:35.705Z,19.75
2018-09-13T18:59:04.498Z,19.75
2018-09-13T19:01:33.405Z,19.66
2018-09-13T19:06:49.282Z,19.48
2018-09-13T19:09:17.988Z,19.44
2018-09-13T19:11:46.825Z,19.43
2018-09-13T19:14:15.622Z,19.40
2018-09-13T19:16:44.727Z,19.37
2018-09-13T19:19:13.505Z,19.42
2018-09-13T19:21:42.448Z,19.40
2018-09-13T19:24:11.435Z,19.35
2018-09-13T19:26:40.225Z,19.38
2018-09-13T19:29:09.079Z,19.33
2018-09-13T19:31:37.983Z,19.30
2018-09-13T19:34:06.708Z,19.20
2018-09-13T19:36:35.475Z,19.13
2018-09-13T19:39:05.100Z,19.12
2018-09-13T19:41:33.897Z,19.11
2018-09-13T19:44:02.709Z,19.13
2018-09-13T19:46:31.575Z,19.10
2018-09-13T19:49:00.359Z,19.12
2018-09-13T19:51:29.184Z,19.13
2018-09-13T19:53:57.942Z,18.97
2018-09-13T19:56:26.737Z,18.92
2018-09-13T19:58:55.556Z,18.77
2018-09-13T20:01:24.471Z,18.62
2018-09-13T20:03:53.250Z,18.62
2018-09-13T20:06:22.011Z,18.60
2018-09-13T20:08:51.184Z,18.57
2018-09-13T20:11:20.118Z,18.56
2018-09-13T20:13:48.971Z,18.50
2018-09-13T20:16:19.306Z,18.30
2018-09-13T20:18:48.023Z,18.23
2018-09-13T20:21:16.925Z,18.14
2018-09-13T20:23:45.719Z,17.86
2018-09-13T20:26:14.537Z,17.92
2018-09-13T20:28:43.343Z,17.85
2018-09-13T20:31:12.283Z,17.85
2018-09-13T20:33:41.084Z,17.80
2018-09-13T20:36:09.796Z,17.76
2018-09-13T20:38:38.689Z,17.79
2018-09-13T20:41:07.525Z,17.83
2018-09-13T20:43:36.245Z,17.78
2018-09-13T20:46:05.089Z,17.84
2018-09-13T20:48:33.851Z,17.78
2018-09-13T20:51:03.195Z,17.82
2018-09-13T20:53:31.888Z,17.78
2018-09-13T20:56:01.255Z,17.72
2018-09-13T20:58:29.937Z,17.63
2018-09-13T21:00:58.683Z,17.62
2018-09-13T21:03:27.448Z,17.63
2018-09-13T21:05:56.178Z,17.56
2018-09-13T21:08:25.002Z,17.52
2018-09-13T21:10:53.918Z,17.58
2018-09-13T21:13:22.789Z,17.45
2018-09-13T21:15:51.556Z,17.49
2018-09-13T21:18:22.526Z,17.42
2018-09-13T21:20:51.256Z,17.53
2018-09-13T21:23:20.103Z,17.35
2018-09-13T21:25:48.770Z,17.41
2018-09-13T21:28:17.545Z,17.35
2018-09-13T21:30:46.300Z,17.25
2018-09-13T21:33:15.030Z,17.25
2018-09-13T21:35:44.158Z,17.37
2018-09-13T21:38:13.051Z,17.41
2018-09-13T21:40:41.909Z,17.47
2018-09-13T21:43:10.622Z,17.52
2018-09-13T21:45:39.395Z,17.56
2018-09-13T21:48:08.094Z,17.54
2018-09-13T21:50:36.914Z,17.57
2018-09-13T21:53:05.736Z,17.57
2018-09-13T21:55:34.518Z,17.57
2018-09-13T21:58:03.441Z,17.53
2018-09-13T22:00:32.246Z,17.55
2018-09-13T22:03:01.066Z,17.48
2018-09-13T22:05:29.856Z,17.44
2018-09-13T22:07:58.561Z,17.48
2018-09-13T22:10:27.296Z,17.46
2018-09-13T22:12:56.111Z,17.49
2018-09-13T22:15:24.804Z,17.41
2018-09-13T22:17:53.577Z,17.39
2018-09-13T22:20:22.406Z,17.41
2018-09-13T22:22:51.131Z,17.39
2018-09-13T22:25:19.838Z,17.27
2018-09-13T22:27:48.693Z,17.26
2018-09-13T22:30:18.795Z,17.20
2018-09-13T22:32:47.540Z,16.98
2018-09-13T22:35:16.338Z,16.79
2018-09-13T22:37:45.042Z,16.77
2018-09-13T22:40:13.876Z,16.61
2018-09-13T22:42:42.658Z,16.55
2018-09-13T22:45:11.323Z,16.49
2018-09-13T22:47:40.106Z,16.45
2018-09-13T22:50:08.928Z,16.42
2018-09-13T22:52:37.715Z,16.41
2018-09-13T22:55:06.457Z,16.37
2018-09-13T22:57:35.240Z,16.22
2018-09-13T23:00:05.742Z,16.14
2018-09-13T23:02:39.902Z,16.11
2018-09-13T23:05:08.643Z,16.08
2018-09-13T23:07:37.451Z,16.09
2018-09-13T23:10:06.397Z,15.90
2018-09-13T23:12:35.190Z,15.91
2018-09-13T23:15:03.928Z,15.93
2018-09-13T23:17:32.722Z,15.90
2018-09-13T23:20:01.512Z,15.88
2018-09-13T23:22:30.292Z,15.78
2018-09-13T23:24:59.045Z,15.65
2018-09-13T23:27:27.714Z,15.65
2018-09-13T23:29:56.471Z,15.60
2018-09-13T23:32:25.272Z,15.56
2018-09-13T23:34:54.067Z,15.50
2018-09-13T23:37:22.871Z,15.44
2018-09-13T23:39:51.853Z,15.45
2018-09-13T23:42:20.306Z,15.41
2018-09-13T23:44:49.046Z,15.45
2018-09-13T23:47:17.719Z,15.41
2018-09-13T23:49:46.543Z,15.42
2018-09-13T23:52:15.259Z,15.42
2018-09-13T23:54:43.938Z,15.41
2018-09-13T23:57:12.952Z,15.39
2018-09-13T23:59:41.719Z,15.39
